Time;durP1;ratioP1;P1;durP2;ratioP2;P2;SDS_P1;SDS_P2;PMS_P1;PMS_P2;Temp;Humidity;BMP_temperature;BMP_pressure;BME280_temperature;BME280_humidity;BME280_pressure;Samples;Min_cycle;Max_cycle;Signal;HPM_P1;HPM_P2
2022/12/31 00:00:35;;;;;;;16.75;11.25;;;11.10;99.90;;;;;;5052723;28;20517;-79
2022/12/31 00:03:02;;;;;;;14.70;10.98;;;11.10;99.90;;;;;;5053992;28;20021;-79
2022/12/31 00:05:30;;;;;;;13.40;11.23;;;11.10;99.90;;;;;;5053864;28;20103;-79
2022/12/31 00:07:56;;;;;;;15.23;12.10;;;11.10;99.90;;;;;;5053943;28;20039;-79
2022/12/31 00:10:22;;;;;;;15.07;11.40;;;11.10;99.90;;;;;;5053819;28;20159;-79
2022/12/31 00:12:47;;;;;;;16.33;11.20;;;11.10;99.90;;;;;;5053152;28;20096;-79
2022/12/31 00:15:13;;;;;;;15.73;11.82;;;11.00;99.90;;;;;;5054127;28;20465;-79
2022/12/31 00:17:39;;;;;;;16.48;11.48;;;11.10;99.90;;;;;;5053822;28;20017;-79
2022/12/31 00:20:05;;;;;;;16.48;11.73;;;11.10;99.90;;;;;;5053486;28;20147;-79
2022/12/31 00:22:31;;;;;;;15.15;12.25;;;11.10;99.90;;;;;;5053303;28;20029;-79
2022/12/31 00:24:56;;;;;;;15.38;11.43;;;11.00;99.90;;;;;;5053946;28;20029;-79
2022/12/31 00:27:22;;;;;;;14.07;11.30;;;11.10;99.90;;;;;;5053774;28;20025;-79
2022/12/31 00:29:48;;;;;;;15.13;11.18;;;11.10;99.90;;;;;;5053612;28;20571;-79
2022/12/31 00:32:13;;;;;;;14.48;11.30;;;11.10;99.90;;;;;;5053655;28;20475;-79
2022/12/31 00:34:39;;;;;;;14.20;9.75;;;11.10;99.90;;;;;;5053390;28;20403;-79
2022/12/31 00:37:04;;;;;;;13.35;10.90;;;11.10;99.90;;;;;;5053128;28;20044;-79
2022/12/31 00:39:30;;;;;;;15.95;11.02;;;11.10;99.90;;;;;;5052043;28;20053;-79
2022/12/31 00:41:56;;;;;;;13.68;10.85;;;11.10;99.90;;;;;;5052890;28;20074;-79
2022/12/31 00:44:21;;;;;;;16.88;11.30;;;11.00;99.90;;;;;;5053500;28;20527;-79
2022/12/31 00:46:47;;;;;;;15.02;11.30;;;11.10;99.90;;;;;;5053400;28;20463;-79
2022/12/31 00:49:14;;;;;;;13.23;10.57;;;11.10;99.90;;;;;;5068356;28;20453;-79
2022/12/31 00:51:39;;;;;;;15.02;10.80;;;11.10;99.90;;;;;;5051333;28;20025;-79
2022/12/31 00:54:05;;;;;;;14.00;9.63;;;11.00;99.90;;;;;;5053233;28;20040;-79
2022/12/31 00:56:31;;;;;;;12.95;10.13;;;11.00;99.90;;;;;;5052823;28;20017;-79
2022/12/31 00:58:58;;;;;;;18.85;10.15;;;11.00;99.90;;;;;;5053073;28;20029;-79
2022/12/31 01:01:29;;;;;;;12.63;9.88;;;11.00;99.90;;;;;;5053093;28;20032;-79
2022/12/31 01:04:00;;;;;;;;;;;11.00;99.90;;;;;;5053452;28;20028;-79
2022/12/31 01:06:26;;;;;;;15.27;10.90;;;11.00;99.90;;;;;;5052744;28;19912;-79
2022/12/31 01:08:54;;;;;;;15.32;10.45;;;11.00;99.90;;;;;;5052827;28;20025;-79
2022/12/31 01:11:27;;;;;;;13.45;10.45;;;11.00;99.90;;;;;;5052550;28;20051;-79
2022/12/31 01:13:57;;;;;;;13.18;10.38;;;10.90;99.90;;;;;;5052946;28;20025;-79
2022/12/31 01:16:47;;;;;;;12.93;9.57;;;10.90;99.90;;;;;;5050962;28;20089;-79
2022/12/31 01:19:16;;;;;;;14.10;10.32;;;10.90;99.90;;;;;;5042743;28;20509;-79
2022/12/31 01:21:43;;;;;;;13.95;9.20;;;10.90;99.90;;;;;;5052251;28;20067;-79
2022/12/31 01:24:10;;;;;;;14.73;10.00;;;10.90;99.90;;;;;;5051997;28;20029;-79
2022/12/31 01:26:36;;;;;;;12.73;10.23;;;11.00;99.90;;;;;;5052527;28;20483;-79
2022/12/31 01:29:04;;;;;;;12.23;9.48;;;10.90;99.90;;;;;;5052239;28;20072;-79
2022/12/31 01:31:29;;;;;;;17.02;10.85;;;10.90;99.90;;;;;;5052177;28;20486;-79
2022/12/31 01:33:56;;;;;;;12.05;9.65;;;10.90;99.90;;;;;;5052272;28;20036;-79
2022/12/31 01:36:25;;;;;;;12.18;9.25;;;10.90;99.90;;;;;;5052219;28;20079;-79
2022/12/31 01:38:51;;;;;;;13.85;9.55;;;10.90;99.90;;;;;;5052640;28;20025;-79
2022/12/31 01:41:20;;;;;;;13.63;9.07;;;10.90;99.90;;;;;;5052253;28;20025;-79
2022/12/31 01:44:02;;;;;;;12.95;9.65;;;10.90;99.90;;;;;;5052160;28;20048;-79
2022/12/31 01:46:41;;;;;;;13.63;9.70;;;11.00;99.90;;;;;;5052094;28;20027;-79
2022/12/31 01:49:17;;;;;;;14.50;9.93;;;10.90;99.90;;;;;;5050908;28;20494;-79
2022/12/31 01:51:49;;;;;;;13.82;8.93;;;10.90;99.90;;;;;;5051818;28;20027;-79
2022/12/31 01:54:19;;;;;;;12.10;9.65;;;11.00;99.90;;;;;;5052407;28;20025;-79
2022/12/31 01:56:46;;;;;;;12.93;9.13;;;10.90;99.90;;;;;;5052086;28;20021;-79
2022/12/31 01:59:15;;;;;;;12.50;9.57;;;10.90;99.90;;;;;;5052276;28;20025;-79
2022/12/31 02:01:41;;;;;;;10.98;9.13;;;10.90;99.90;;;;;;5050377;28;20083;-79
2022/12/31 02:04:12;;;;;;;12.40;9.20;;;10.90;99.90;;;;;;5051995;28;20372;-79
2022/12/31 02:06:43;;;;;;;10.35;8.80;;;10.90;99.90;;;;;;5051910;28;20021;-79
2022/12/31 02:09:10;;;;;;;12.93;9.50;;;10.90;99.90;;;;;;5050714;28;20029;-79
2022/12/31 02:11:36;;;;;;;13.10;9.93;;;11.00;99.90;;;;;;5051748;28;20053;-79
2022/12/31 02:14:15;;;;;;;10.20;8.90;;;10.90;99.90;;;;;;5051891;28;20104;-79
2022/12/31 02:16:58;;;;;;;12.95;9.52;;;10.90;99.90;;;;;;5052048;28;20025;-79
2022/12/31 02:19:45;;;;;;;13.90;10.15;;;11.00;99.90;;;;;;5050499;28;20033;-79
2022/12/31 02:22:32;;;;;;;14.45;10.55;;;10.90;99.90;;;;;;5051526;28;20036;-79
2022/12/31 02:25:12;;;;;;;15.07;10.73;;;11.00;99.90;;;;;;5051906;28;20055;-79
2022/12/31 02:28:04;;;;;;;12.77;10.18;;;10.90;99.90;;;;;;5052025;28;20067;-79
2022/12/31 02:30:32;;;;;;;12.82;9.75;;;10.90;99.90;;;;;;5051703;28;20033;-79
2022/12/31 02:33:06;;;;;;;12.73;10.30;;;10.90;99.90;;;;;;5051770;28;20029;-79
2022/12/31 02:35:50;;;;;;;13.18;10.15;;;11.00;99.90;;;;;;5052706;28;20104;-79
2022/12/31 02:38:29;;;;;;;14.65;10.40;;;11.00;99.90;;;;;;5055371;28;20083;-79
2022/12/31 02:40:56;;;;;;;12.60;9.43;;;10.90;99.90;;;;;;5055692;28;20021;-79
2022/12/31 02:43:22;;;;;;;14.32;9.15;;;11.00;99.90;;;;;;5055302;28;20033;-79
2022/12/31 02:46:18;;;;;;;13.30;10.10;;;11.00;99.90;;;;;;5055704;28;20025;-79
2022/12/31 02:48:56;;;;;;;9.95;8.57;;;11.00;99.90;;;;;;5049686;28;20041;-79
2022/12/31 02:51:43;;;;;;;11.68;9.50;;;10.90;99.90;;;;;;5055355;28;20017;-79
2022/12/31 02:54:08;;;;;;;13.38;8.73;;;11.00;99.90;;;;;;5053960;28;20479;-79
2022/12/31 02:56:50;;;;;;;12.63;8.90;;;11.00;99.90;;;;;;5055492;28;20104;-79
2022/12/31 03:02:18;;;;;;;14.98;9.98;;;11.00;99.90;;;;;;5035445;28;20040;-79
2022/12/31 03:04:55;;;;;;;9.68;8.30;;;11.00;99.90;;;;;;5051382;28;20127;-80
2022/12/31 03:07:22;;;;;;;13.52;9.40;;;11.00;99.90;;;;;;5054924;28;20063;-79
2022/12/31 03:09:48;;;;;;;11.95;9.48;;;11.00;99.90;;;;;;5055234;28;20025;-79
2022/12/31 03:14:59;;;;;;;14.23;9.45;;;11.00;99.90;;;;;;5055525;28;20068;-79
2022/12/31 03:17:26;;;;;;;14.55;9.15;;;11.00;99.90;;;;;;5055105;28;20486;-79
2022/12/31 03:22:38;;;;;;;14.57;9.60;;;10.90;99.90;;;;;;5054745;28;20086;-79
2022/12/31 03:27:53;;;;;;;12.48;9.52;;;10.90;99.90;;;;;;5054499;28;20025;-79
2022/12/31 03:30:20;;;;;;;11.57;9.60;;;10.90;99.90;;;;;;5054988;28;20025;-79
2022/12/31 03:32:46;;;;;;;12.10;8.60;;;10.90;99.90;;;;;;5054617;28;20029;-79
2022/12/31 03:35:14;;;;;;;13.13;9.27;;;10.90;99.90;;;;;;5053433;28;20025;-79
2022/12/31 03:37:41;;;;;;;10.52;7.75;;;10.90;99.90;;;;;;5054086;28;20053;-79
2022/12/31 03:40:09;;;;;;;10.18;8.40;;;10.90;99.90;;;;;;5054696;28;20047;-79
2022/12/31 03:42:35;;;;;;;9.07;7.50;;;11.00;99.90;;;;;;5069376;28;20067;-79
2022/12/31 03:45:02;;;;;;;13.45;8.93;;;10.90;99.90;;;;;;5054690;28;20025;-79
2022/12/31 03:47:27;;;;;;;11.30;8.70;;;11.00;99.90;;;;;;5053140;28;20098;-79
2022/12/31 03:49:53;;;;;;;10.55;8.15;;;11.00;99.90;;;;;;5054295;28;20478;-79
2022/12/31 03:52:19;;;;;;;10.82;8.05;;;11.00;99.90;;;;;;5053997;28;20025;-79
2022/12/31 03:54:45;;;;;;;12.05;8.70;;;10.90;99.90;;;;;;5054162;28;20078;-79
2022/12/31 03:57:11;;;;;;;11.85;8.50;;;10.90;99.90;;;;;;5054048;28;20390;-79
2022/12/31 03:59:37;;;;;;;9.95;7.63;;;10.90;99.90;;;;;;5052774;28;20471;-79
2022/12/31 04:02:03;;;;;;;10.95;8.55;;;10.80;99.90;;;;;;5052790;28;20036;-79
2022/12/31 04:04:29;;;;;;;10.00;7.43;;;10.90;99.90;;;;;;5052558;28;20434;-79
2022/12/31 04:06:54;;;;;;;9.68;7.38;;;10.90;99.90;;;;;;5052651;28;20083;-79
2022/12/31 04:09:20;;;;;;;9.68;8.38;;;10.80;99.90;;;;;;5053806;28;20025;-79
2022/12/31 04:11:46;;;;;;;11.48;7.82;;;10.80;99.90;;;;;;5053349;28;20025;-79
2022/12/31 04:14:11;;;;;;;11.82;8.00;;;10.90;99.90;;;;;;5053990;28;20025;-79
2022/12/31 04:16:37;;;;;;;9.65;7.63;;;10.80;99.90;;;;;;5054097;28;20429;-79
2022/12/31 04:19:03;;;;;;;10.73;7.72;;;10.90;99.90;;;;;;5053758;28;20552;-79
2022/12/31 04:21:29;;;;;;;11.00;7.30;;;10.90;99.90;;;;;;5053871;28;20083;-79
2022/12/31 04:23:55;;;;;;;12.80;7.68;;;10.90;99.90;;;;;;5052325;28;20033;-79
2022/12/31 04:26:20;;;;;;;9.13;7.45;;;10.80;99.90;;;;;;5051972;28;20087;-79
2022/12/31 04:28:46;;;;;;;9.52;7.63;;;10.90;99.90;;;;;;5051985;28;20537;-79
2022/12/31 04:31:12;;;;;;;9.68;7.40;;;10.90;99.90;;;;;;5053710;28;20134;-79
2022/12/31 04:33:38;;;;;;;8.60;6.70;;;10.80;99.90;;;;;;5053614;28;20124;-79
2022/12/31 04:36:06;;;;;;;12.05;7.57;;;10.80;99.90;;;;;;5053613;28;20025;-79
2022/12/31 04:38:31;;;;;;;10.30;6.97;;;10.80;99.90;;;;;;5048296;28;20112;-79
2022/12/31 04:41:15;;;;;;;7.78;6.68;;;10.90;99.90;;;;;;5033398;28;20117;-79
2022/12/31 04:43:49;;;;;;;9.18;6.90;;;10.80;99.90;;;;;;5031901;28;20052;-79
2022/12/31 04:46:16;;;;;;;8.88;6.63;;;10.80;99.90;;;;;;5033602;28;20032;-79
2022/12/31 04:48:42;;;;;;;7.00;6.22;;;10.90;99.90;;;;;;5048516;28;20037;-79
2022/12/31 04:51:08;;;;;;;9.52;6.68;;;10.80;99.90;;;;;;5033498;28;20025;-78
2022/12/31 04:53:34;;;;;;;10.02;6.93;;;10.90;99.90;;;;;;5032940;28;20554;-78
2022/12/31 04:56:00;;;;;;;8.13;7.28;;;10.90;99.90;;;;;;5033200;28;20101;-79
2022/12/31 04:58:25;;;;;;;8.32;6.82;;;10.80;99.90;;;;;;5048014;28;20070;-78
2022/12/31 05:00:53;;;;;;;8.05;7.18;;;10.80;99.90;;;;;;5051897;28;20119;-78
2022/12/31 05:03:20;;;;;;;8.20;7.05;;;10.80;99.90;;;;;;5053004;28;20020;-78
2022/12/31 05:05:46;;;;;;;8.35;6.43;;;10.80;99.90;;;;;;5053232;28;20096;-78
2022/12/31 05:08:13;;;;;;;8.65;6.70;;;10.80;99.90;;;;;;5052475;28;20013;-78
2022/12/31 05:10:48;;;;;;;8.85;6.75;;;10.80;99.90;;;;;;5052846;28;20103;-78
2022/12/31 05:13:14;;;;;;;10.02;6.85;;;10.90;99.90;;;;;;5052526;28;20077;-78
2022/12/31 05:15:40;;;;;;;8.07;7.05;;;10.90;99.90;;;;;;5052718;28;20040;-78
2022/12/31 05:18:07;;;;;;;8.23;6.68;;;10.90;99.90;;;;;;5051431;28;20613;-78
2022/12/31 05:20:33;;;;;;;9.38;7.32;;;10.90;99.90;;;;;;5052531;28;20025;-78
2022/12/31 05:22:59;;;;;;;10.20;7.65;;;10.90;99.90;;;;;;5052200;28;20088;-78
2022/12/31 05:25:25;;;;;;;7.70;6.47;;;10.90;99.90;;;;;;5052835;28;20025;-78
2022/12/31 05:27:51;;;;;;;9.75;7.10;;;10.90;99.90;;;;;;5050743;28;20557;-78
2022/12/31 05:30:17;;;;;;;7.32;6.57;;;10.90;99.90;;;;;;5051153;28;20029;-78
2022/12/31 05:32:43;;;;;;;14.52;8.27;;;10.90;99.90;;;;;;5052539;28;20021;-78
2022/12/31 05:35:09;;;;;;;9.45;7.82;;;11.00;99.90;;;;;;5052620;28;20060;-78
2022/12/31 05:37:35;;;;;;;17.20;9.23;;;10.90;99.90;;;;;;5047158;28;20056;-78
2022/12/31 05:40:01;;;;;;;9.82;7.72;;;10.90;99.90;;;;;;5031161;28;20029;-78
2022/12/31 05:42:27;;;;;;;10.25;7.95;;;10.90;99.90;;;;;;5030835;28;20029;-78
2022/12/31 05:44:52;;;;;;;9.93;7.88;;;10.90;99.90;;;;;;5032658;28;20029;-78
2022/12/31 05:47:18;;;;;;;9.40;7.25;;;10.90;99.90;;;;;;5032499;28;20025;-78
2022/12/31 05:49:44;;;;;;;8.80;7.35;;;10.90;99.90;;;;;;5032419;28;20038;-78
2022/12/31 05:52:09;;;;;;;13.13;8.00;;;10.80;99.90;;;;;;5031996;28;20035;-78
2022/12/31 05:54:35;;;;;;;9.50;8.38;;;10.90;99.90;;;;;;5032332;28;20482;-78
2022/12/31 05:57:02;;;;;;;12.80;7.85;;;10.90;99.90;;;;;;5035836;28;20096;-78
2022/12/31 05:59:28;;;;;;;10.30;7.93;;;11.00;99.90;;;;;;5050806;28;20077;-78
2022/12/31 06:01:54;;;;;;;13.23;8.48;;;11.00;99.90;;;;;;5050674;28;20434;-78
2022/12/31 06:04:20;;;;;;;9.52;7.57;;;11.00;99.90;;;;;;5052174;28;20382;-78
2022/12/31 06:06:46;;;;;;;13.75;8.70;;;11.00;99.90;;;;;;5051784;28;20356;-78
2022/12/31 06:09:11;;;;;;;13.50;8.93;;;11.10;99.90;;;;;;5052146;28;20475;-78
2022/12/31 06:11:37;;;;;;;11.07;8.55;;;11.10;99.90;;;;;;5054564;28;20483;-78
2022/12/31 06:14:03;;;;;;;13.77;9.20;;;11.00;99.90;;;;;;5056049;28;20021;-78
2022/12/31 06:16:28;;;;;;;12.27;8.20;;;11.00;99.90;;;;;;5054820;28;20379;-78
2022/12/31 06:18:54;;;;;;;12.93;8.23;;;11.00;99.90;;;;;;5054838;28;20505;-78
2022/12/31 06:21:21;;;;;;;9.77;8.45;;;11.00;99.90;;;;;;5055645;28;20021;-78
2022/12/31 06:23:47;;;;;;;12.68;9.55;;;11.00;99.90;;;;;;5055866;28;20475;-78
2022/12/31 06:26:14;;;;;;;10.65;8.10;;;11.00;99.90;;;;;;5055891;28;20021;-78
2022/12/31 06:28:40;;;;;;;9.75;8.05;;;11.10;99.90;;;;;;5055420;28;20155;-78
2022/12/31 06:31:08;;;;;;;11.07;8.13;;;11.10;99.90;;;;;;5055860;28;20561;-78
2022/12/31 06:33:34;;;;;;;10.45;7.97;;;11.00;99.90;;;;;;5054517;28;20020;-78
2022/12/31 06:36:03;;;;;;;9.18;7.18;;;11.00;99.90;;;;;;5055510;28;20024;-78
2022/12/31 06:38:31;;;;;;;9.95;7.32;;;10.90;99.90;;;;;;5050593;28;20032;-78
2022/12/31 06:40:57;;;;;;;11.07;7.65;;;10.90;99.90;;;;;;5035945;28;20095;-78
2022/12/31 06:43:22;;;;;;;10.65;7.35;;;10.90;99.90;;;;;;5050376;28;20033;-78
2022/12/31 06:45:48;;;;;;;9.35;8.02;;;10.90;99.90;;;;;;5035869;28;20017;-78
2022/12/31 06:48:14;;;;;;;11.98;7.43;;;10.90;99.90;;;;;;5035768;28;20495;-78
2022/12/31 06:50:40;;;;;;;10.25;7.10;;;10.90;99.90;;;;;;5050727;28;20033;-78
2022/12/31 06:53:06;;;;;;;9.57;7.55;;;11.00;99.90;;;;;;5034021;28;20030;-78
2022/12/31 06:55:32;;;;;;;9.52;7.28;;;11.00;99.90;;;;;;5051060;28;20029;-78
2022/12/31 06:57:58;;;;;;;9.88;8.00;;;11.00;99.90;;;;;;5046749;28;20032;-78
2022/12/31 07:00:24;;;;;;;11.95;7.97;;;11.00;99.90;;;;;;5055252;28;20025;-78
2022/12/31 07:03:02;;;;;;;8.45;7.50;;;11.00;99.90;;;;;;5055242;28;20033;-78
2022/12/31 07:05:33;;;;;;;12.45;8.68;;;11.00;99.90;;;;;;5055361;28;20021;-78
2022/12/31 07:08:28;;;;;;;13.85;8.93;;;11.10;99.90;;;;;;5053636;28;20058;-78
2022/12/31 07:11:19;;;;;;;15.77;9.07;;;11.20;99.90;;;;;;5053921;28;20052;-78
2022/12/31 07:14:31;;;;;;;11.43;8.85;;;11.10;99.90;;;;;;5054300;28;20041;-78
2022/12/31 07:17:02;;;;;;;;;;;11.10;99.90;;;;;;5055834;28;20100;-78
2022/12/31 07:19:28;;;;;;;;;;;11.00;99.90;;;;;;5053851;28;20355;-78
2022/12/31 07:21:57;;;;;;;9.73;8.25;;;11.10;99.90;;;;;;5053309;28;19912;-78
2022/12/31 07:24:23;;;;;;;11.13;8.63;;;11.10;99.90;;;;;;5054887;28;20017;-78
2022/12/31 07:27:09;;;;;;;11.60;8.55;;;11.20;99.90;;;;;;5054851;28;20097;-78
2022/12/31 07:29:55;;;;;;;8.98;7.85;;;11.20;99.90;;;;;;5054546;28;20052;-78
2022/12/31 07:32:33;;;;;;;11.32;8.15;;;11.10;99.90;;;;;;5054783;28;20025;-78
2022/12/31 07:35:32;;;;;;;13.68;8.23;;;11.20;99.90;;;;;;5054686;28;20025;-78
2022/12/31 07:38:24;;;;;;;13.00;8.80;;;11.20;99.90;;;;;;4972926;28;20113;-78
2022/12/31 07:40:56;;;;;;;;;;;11.30;99.90;;;;;;4972909;28;20616;-78
2022/12/31 07:43:27;;;;;;;;;;;11.30;99.90;;;;;;4973588;28;19914;-78
2022/12/31 07:46:01;;;;;;;11.13;8.73;;;11.30;99.90;;;;;;4973246;28;19913;-78
2022/12/31 07:48:28;;;;;;;11.95;8.57;;;11.40;99.90;;;;;;4973010;28;20039;-78
2022/12/31 07:50:55;;;;;;;12.43;8.25;;;11.40;99.90;;;;;;4973115;28;20031;-78
2022/12/31 07:53:22;;;;;;;16.85;8.93;;;11.40;99.90;;;;;;4973261;28;20109;-78
2022/12/31 07:56:14;;;;;;;11.77;8.90;;;11.40;99.90;;;;;;4973284;28;20053;-78
2022/12/31 07:58:40;;;;;;;10.20;8.48;;;11.40;99.90;;;;;;4988575;28;20038;-78
2022/12/31 08:01:11;;;;;;;10.45;7.53;;;11.50;99.90;;;;;;4992289;28;20040;-78
2022/12/31 08:03:42;;;;;;;11.77;8.63;;;11.60;99.90;;;;;;4998980;28;20500;-78
2022/12/31 08:06:14;;;;;;;10.18;8.43;;;11.60;99.90;;;;;;5012092;28;20026;-78
2022/12/31 08:09:07;;;;;;;12.30;8.70;;;11.70;99.90;;;;;;4995336;28;20046;-78
2022/12/31 08:11:55;;;;;;;10.32;7.93;;;11.70;99.90;;;;;;5011525;28;20110;-78
2022/12/31 08:14:21;;;;;;;11.73;8.23;;;11.70;99.90;;;;;;5007739;28;20407;-78
2022/12/31 08:16:47;;;;;;;11.02;8.35;;;11.80;99.90;;;;;;5032269;28;20032;-78
2022/12/31 08:19:23;;;;;;;12.52;8.52;;;11.80;99.90;;;;;;5033660;28;20032;-78
2022/12/31 08:22:13;;;;;;;10.63;8.85;;;11.90;99.90;;;;;;5041515;28;20043;-78
2022/12/31 08:24:45;;;;;;;12.82;8.45;;;12.00;99.90;;;;;;5053800;28;20032;-78
2022/12/31 08:27:45;;;;;;;14.05;8.93;;;12.00;99.90;;;;;;5052244;28;20503;-78
2022/12/31 08:30:15;;;;;;;13.20;8.52;;;12.00;99.90;;;;;;5053859;28;20041;-78
2022/12/31 08:33:19;;;;;;;17.38;9.20;;;12.10;99.90;;;;;;5053411;28;20029;-78
2022/12/31 08:36:10;;;;;;;12.63;8.75;;;12.20;99.90;;;;;;4991815;28;20121;-78
2022/12/31 08:39:01;;;;;;;12.95;8.75;;;12.20;99.90;;;;;;4991714;28;20034;-78
2022/12/31 08:41:28;;;;;;;10.15;8.00;;;12.20;99.90;;;;;;4991631;28;20577;-78
2022/12/31 08:44:30;;;;;;;11.18;8.55;;;12.30;99.90;;;;;;4991855;28;20125;-78
2022/12/31 08:46:58;;;;;;;12.32;8.68;;;12.30;99.90;;;;;;4991431;28;20026;-78
2022/12/31 08:49:27;;;;;;;14.60;9.52;;;12.50;99.90;;;;;;4991650;28;20511;-78
2022/12/31 08:51:53;;;;;;;12.95;8.18;;;12.60;99.90;;;;;;4991391;28;20034;-78
2022/12/31 08:54:19;;;;;;;10.10;8.20;;;12.60;99.90;;;;;;4991515;28;20080;-78
2022/12/31 08:56:56;;;;;;;11.95;8.50;;;12.70;99.90;;;;;;4991575;28;20030;-78
2022/12/31 08:59:46;;;;;;;13.13;8.55;;;12.80;99.90;;;;;;4991280;28;20050;-78
2022/12/31 09:02:38;;;;;;;10.55;8.50;;;12.90;99.90;;;;;;4990782;28;20030;-78
2022/12/31 09:05:27;;;;;;;10.70;8.18;;;13.00;99.90;;;;;;5009789;28;20249;-78
2022/12/31 09:08:13;;;;;;;15.55;8.98;;;13.10;99.90;;;;;;4952276;29;20079;-79
2022/12/31 09:10:52;;;;;;;11.95;8.80;;;13.70;99.90;;;;;;4940500;28;20093;-78
2022/12/31 09:13:25;;;;;;;13.18;8.90;;;14.60;99.90;;;;;;4971635;28;20039;-78
2022/12/31 09:15:59;;;;;;;16.67;9.52;;;15.30;99.90;;;;;;4971520;28;20045;-78
2022/12/31 09:18:25;;;;;;;14.23;8.57;;;15.00;99.90;;;;;;4971750;28;20121;-78
2022/12/31 09:20:51;;;;;;;12.45;8.70;;;14.50;99.90;;;;;;4971737;28;20034;-78
2022/12/31 09:23:17;;;;;;;12.77;8.48;;;14.00;99.90;;;;;;4990826;28;20077;-78
2022/12/31 09:25:59;;;;;;;16.20;8.40;;;13.90;99.90;;;;;;4990940;28;20039;-78
2022/12/31 09:28:47;;;;;;;14.05;8.52;;;13.90;99.90;;;;;;4990750;28;20060;-78
2022/12/31 09:31:19;;;;;;;12.57;8.38;;;13.90;99.90;;;;;;4990416;28;20040;-78
2022/12/31 09:34:06;;;;;;;11.40;8.25;;;13.90;99.90;;;;;;4990996;28;20040;-78
2022/12/31 09:36:43;;;;;;;11.63;8.45;;;13.90;99.90;;;;;;4974500;28;20037;-78
2022/12/31 09:39:37;;;;;;;11.15;8.50;;;13.90;99.90;;;;;;4973725;28;20528;-79
2022/12/31 09:42:08;;;;;;;10.52;7.88;;;13.80;99.90;;;;;;4970995;28;20158;-78
2022/12/31 09:45:11;;;;;;;9.77;8.02;;;13.80;99.90;;;;;;4997500;28;20048;-79
2022/12/31 09:48:02;;;;;;;13.27;8.27;;;13.80;99.90;;;;;;5031879;28;20040;-79
2022/12/31 09:50:44;;;;;;;9.98;8.57;;;13.80;99.90;;;;;;5032384;28;20104;-79
2022/12/31 09:53:23;;;;;;;11.02;7.70;;;13.90;99.90;;;;;;5031893;28;20060;-78
2022/12/31 09:55:52;;;;;;;13.43;8.15;;;14.00;99.90;;;;;;5030946;28;20025;-79
2022/12/31 09:58:31;;;;;;;12.32;8.07;;;14.00;99.90;;;;;;5046138;28;20021;-78
2022/12/31 10:01:15;;;;;;;14.23;7.88;;;14.10;99.90;;;;;;5050849;28;20117;-78
2022/12/31 10:04:08;;;;;;;9.15;7.35;;;14.20;99.90;;;;;;5052036;28;20032;-78
2022/12/31 10:07:04;;;;;;;12.52;8.15;;;14.30;99.90;;;;;;5052021;28;20021;-78
2022/12/31 10:09:47;;;;;;;13.88;7.68;;;14.40;99.90;;;;;;5050681;28;20021;-78
2022/12/31 10:12:37;;;;;;;10.77;7.43;;;14.50;99.90;;;;;;5051911;28;20479;-78
2022/12/31 10:15:25;;;;;;;14.95;7.60;;;14.60;99.90;;;;;;5051868;28;20017;-78
2022/12/31 10:18:24;;;;;;;9.68;7.50;;;14.80;99.90;;;;;;5051869;28;20021;-79
2022/12/31 10:21:04;;;;;;;10.93;7.57;;;14.70;99.90;;;;;;5052059;28;20102;-78
2022/12/31 10:23:51;;;;;;;12.93;8.07;;;14.80;99.90;;;;;;5031943;28;20087;-78
2022/12/31 10:26:41;;;;;;;9.48;7.13;;;14.80;99.90;;;;;;5032266;28;20097;-78
2022/12/31 10:29:33;;;;;;;9.25;7.25;;;14.90;99.90;;;;;;5031626;28;20076;-78
2022/12/31 10:32:14;;;;;;;12.10;7.53;;;14.90;99.90;;;;;;5032007;28;20026;-78
2022/12/31 10:34:58;;;;;;;12.23;7.78;;;14.90;99.90;;;;;;5031986;28;20108;-79
2022/12/31 10:37:45;;;;;;;11.85;8.15;;;14.90;99.90;;;;;;5034399;28;20018;-78
2022/12/31 10:40:28;;;;;;;10.73;7.35;;;14.90;99.90;;;;;;5050450;28;20025;-79
2022/12/31 10:42:57;;;;;;;10.35;7.85;;;14.80;99.90;;;;;;5051292;28;20542;-78
2022/12/31 10:45:28;;;;;;;9.15;6.72;;;14.80;99.90;;;;;;5051546;28;20072;-78
2022/12/31 10:48:15;;;;;;;9.13;7.40;;;14.70;99.90;;;;;;5051610;28;20025;-78
2022/12/31 10:50:56;;;;;;;11.57;7.40;;;14.70;99.90;;;;;;5051626;28;20483;-78
2022/12/31 10:53:24;;;;;;;9.68;7.03;;;14.70;99.90;;;;;;5051410;28;20021;-78
2022/12/31 10:56:11;;;;;;;10.48;7.22;;;14.80;99.90;;;;;;5051697;28;20025;-78
2022/12/31 10:59:14;;;;;;;13.63;7.10;;;15.10;99.90;;;;;;5055470;28;20021;-78
2022/12/31 11:01:48;;;;;;;14.40;7.85;;;15.20;99.90;;;;;;5055544;28;20033;-78
2022/12/31 11:04:47;;;;;;;11.88;7.18;;;15.30;99.90;;;;;;5055270;28;20562;-78
2022/12/31 11:07:37;;;;;;;13.45;8.13;;;15.20;99.90;;;;;;5054988;28;20518;-78
2022/12/31 11:10:05;;;;;;;12.30;7.70;;;15.20;99.90;;;;;;5055294;28;20052;-78
2022/12/31 11:13:02;;;;;;;10.82;7.40;;;15.20;99.90;;;;;;5054663;28;20116;-78
2022/12/31 11:15:46;;;;;;;14.30;7.82;;;15.20;99.90;;;;;;5055030;28;20490;-78
2022/12/31 11:18:26;;;;;;;9.02;6.63;;;15.20;99.90;;;;;;5055254;28;20029;-78
2022/12/31 11:21:03;;;;;;;11.95;7.25;;;15.20;99.90;;;;;;5055007;28;20043;-79
2022/12/31 11:23:50;;;;;;;11.93;7.85;;;15.10;99.90;;;;;;5054779;28;20017;-78
2022/12/31 11:26:27;;;;;;;9.27;7.07;;;14.90;99.90;;;;;;5054899;28;20030;-78
2022/12/31 11:29:30;;;;;;;11.18;7.13;;;14.70;99.90;;;;;;5053278;28;20053;-78
2022/12/31 11:32:25;;;;;;;9.90;6.53;;;14.60;99.90;;;;;;5053261;28;20024;-78
2022/12/31 11:35:06;;;;;;;13.68;7.35;;;14.70;99.90;;;;;;5054987;28;20041;-78
2022/12/31 11:37:57;;;;;;;11.32;7.05;;;14.80;99.90;;;;;;5054593;28;20043;-78
2022/12/31 11:40:52;;;;;;;10.63;6.60;;;14.80;99.90;;;;;;5052991;28;20047;-78
2022/12/31 11:43:38;;;;;;;13.23;7.65;;;14.90;99.90;;;;;;5054401;28;20036;-78
2022/12/31 11:46:18;;;;;;;12.02;7.28;;;14.90;99.90;;;;;;5054403;28;20601;-78
2022/12/31 11:49:11;;;;;;;15.25;8.23;;;14.90;99.90;;;;;;5053157;28;20055;-78
2022/12/31 11:52:08;;;;;;;11.70;7.30;;;14.90;99.90;;;;;;5054524;28;20033;-78
2022/12/31 11:54:55;;;;;;;10.73;7.05;;;14.80;99.90;;;;;;5052686;28;20509;-78
2022/12/31 11:57:36;;;;;;;12.85;7.25;;;14.90;99.90;;;;;;5052897;28;20027;-78
2022/12/31 12:00:23;;;;;;;10.43;7.40;;;15.00;99.90;;;;;;5054235;28;20221;-78
2022/12/31 12:02:58;;;;;;;13.43;7.38;;;15.10;99.90;;;;;;5052774;28;20037;-78
2022/12/31 12:05:25;;;;;;;12.25;8.40;;;15.10;99.90;;;;;;5054174;28;20039;-78
2022/12/31 12:07:52;;;;;;;11.77;7.75;;;15.10;99.90;;;;;;5053310;28;20025;-78
2022/12/31 12:10:49;;;;;;;11.20;7.53;;;14.90;99.90;;;;;;5053666;28;20095;-78
2022/12/31 12:13:24;;;;;;;11.05;7.47;;;14.80;99.90;;;;;;5051925;28;20517;-78
2022/12/31 12:15:56;;;;;;;10.75;6.85;;;14.70;99.90;;;;;;5054021;28;20044;-78
2022/12/31 12:18:49;;;;;;;9.95;7.13;;;14.70;99.90;;;;;;5054007;28;20059;-78
2022/12/31 12:21:19;;;;;;;7.22;6.47;;;14.70;99.90;;;;;;5048313;28;20029;-78
2022/12/31 12:24:03;;;;;;;8.75;7.28;;;14.70;99.90;;;;;;5052077;28;20017;-79
2022/12/31 12:26:38;;;;;;;9.32;6.80;;;14.70;99.90;;;;;;5053853;28;20063;-78
2022/12/31 12:29:19;;;;;;;8.13;6.80;;;14.70;99.90;;;;;;5052054;28;20072;-78
2022/12/31 12:31:57;;;;;;;12.02;6.80;;;14.70;99.90;;;;;;5053660;28;20049;-78
2022/12/31 12:34:37;;;;;;;11.07;7.35;;;14.70;99.90;;;;;;5053678;28;20105;-78
2022/12/31 12:37:06;;;;;;;8.10;6.25;;;14.70;99.90;;;;;;5053269;28;20029;-78
2022/12/31 12:39:33;;;;;;;7.72;6.18;;;14.70;99.90;;;;;;5033485;28;20032;-78
2022/12/31 12:42:03;;;;;;;8.82;5.85;;;14.70;99.90;;;;;;5033094;28;20034;-78
2022/12/31 12:44:30;;;;;;;9.07;5.65;;;14.80;99.90;;;;;;5033599;28;20104;-78
2022/12/31 12:46:57;;;;;;;9.10;6.22;;;14.80;99.90;;;;;;5033588;28;20037;-78
2022/12/31 12:49:24;;;;;;;8.50;5.97;;;14.80;99.90;;;;;;5033450;28;20504;-78
2022/12/31 12:52:23;;;;;;;8.13;6.45;;;14.90;99.90;;;;;;5032926;28;20025;-78
2022/12/31 12:55:16;;;;;;;8.00;6.07;;;14.90;99.90;;;;;;5033468;28;20032;-78
2022/12/31 12:58:13;;;;;;;10.32;7.10;;;14.90;99.90;;;;;;5042305;28;20013;-78
2022/12/31 13:01:18;;;;;;;9.93;7.65;;;15.00;99.90;;;;;;5053035;28;20107;-78
2022/12/31 13:04:01;;;;;;;7.85;6.35;;;14.90;99.90;;;;;;5041954;28;20064;-78
2022/12/31 13:06:35;;;;;;;8.45;5.60;;;15.00;99.90;;;;;;5052847;28;20025;-78
2022/12/31 13:09:20;;;;;;;7.22;5.57;;;15.00;99.90;;;;;;5051362;28;20052;-78
2022/12/31 13:12:14;;;;;;;8.70;6.47;;;15.00;99.90;;;;;;5051239;28;20029;-78
2022/12/31 13:14:54;;;;;;;9.73;6.32;;;15.10;99.90;;;;;;5048592;28;20059;-78
2022/12/31 13:17:57;;;;;;;7.03;6.13;;;15.10;99.90;;;;;;5052956;28;20029;-78
2022/12/31 13:20:47;;;;;;;7.13;5.85;;;15.10;99.90;;;;;;5052658;28;20039;-78
2022/12/31 13:23:34;;;;;;;7.78;5.88;;;15.10;99.90;;;;;;5050807;28;20115;-78
2022/12/31 13:26:13;;;;;;;7.43;6.15;;;15.10;99.90;;;;;;5051227;28;20111;-78
2022/12/31 13:28:41;;;;;;;8.32;5.47;;;15.10;99.90;;;;;;5052437;28;20122;-78